Time;durP1;ratioP1;P1;durP2;ratioP2;P2;SDS_P1;SDS_P2;PMS_P1;PMS_P2;Temp;Humidity;BMP_temperature;BMP_pressure;BME280_temperature;BME280_humidity;BME280_pressure;Samples;Min_cycle;Max_cycle;Signal;HPM_P1;HPM_P2
2020/12/06 00:01:03;;;;;;;15.60;9.57;;;;;;;;;;4374430;32;20131;-80
2020/12/06 00:03:29;;;;;;;14.33;9.10;;;;;;;;;;4361324;32;20154;-80
2020/12/06 00:05:54;;;;;;;13.03;9.03;;;;;;;;;;4361403;32;20453;-80
2020/12/06 00:08:22;;;;;;;14.13;8.23;;;;;;;;;;4363976;32;20228;-80
2020/12/06 00:11:08;;;;;;;12.73;9.03;;;;;;;;;;4363505;32;20155;-80
2020/12/06 00:13:36;;;;;;;13.80;8.90;;;;;;;;;;4355832;32;20170;-81
2020/12/06 00:16:01;;;;;;;14.13;9.50;;;;;;;;;;4363901;32;20151;-80
2020/12/06 00:18:32;;;;;;;13.93;8.90;;;;;;;;;;4363809;32;20564;-79
2020/12/06 00:20:57;;;;;;;14.40;9.87;;;;;;;;;;4364684;32;20152;-80
2020/12/06 00:23:22;;;;;;;12.70;8.47;;;;;;;;;;4363936;32;20531;-79
2020/12/06 00:25:57;;;;;;;13.77;9.27;;;;;;;;;;4363439;32;20195;-81
2020/12/06 00:28:26;;;;;;;13.50;9.13;;;;;;;;;;4363791;32;20173;-79
2020/12/06 00:30:51;;;;;;;15.53;9.40;;;;;;;;;;4362751;32;20150;-80
2020/12/06 00:33:16;;;;;;;15.40;9.70;;;;;;;;;;4363284;32;20201;-81
2020/12/06 00:35:42;;;;;;;12.67;8.77;;;;;;;;;;4363513;32;20485;-80
2020/12/06 00:38:07;;;;;;;13.63;9.80;;;;;;;;;;4363125;32;20170;-80
2020/12/06 00:40:33;;;;;;;14.33;10.00;;;;;;;;;;4363168;32;20212;-81
2020/12/06 00:42:58;;;;;;;15.57;9.10;;;;;;;;;;4363655;32;20637;-81
2020/12/06 00:45:23;;;;;;;15.10;9.47;;;;;;;;;;4363110;32;20166;-80
2020/12/06 00:48:00;;;;;;;16.73;10.03;;;;;;;;;;4363332;32;20188;-80
2020/12/06 00:50:25;;;;;;;15.63;8.43;;;;;;;;;;4363264;32;20206;-81
2020/12/06 00:52:51;;;;;;;18.20;9.53;;;;;;;;;;4363790;32;20634;-81
2020/12/06 00:55:16;;;;;;;13.73;8.90;;;;;;;;;;4363641;32;20166;-81
2020/12/06 00:57:42;;;;;;;16.07;10.53;;;;;;;;;;4363407;32;20158;-81
2020/12/06 01:00:08;;;;;;;13.70;9.40;;;;;;;;;;4363287;32;20706;-81
2020/12/06 01:02:33;;;;;;;16.97;10.30;;;;;;;;;;4363570;32;20159;-80
2020/12/06 01:05:01;;;;;;;15.63;9.80;;;;;;;;;;4376374;32;20573;-81
2020/12/06 01:07:27;;;;;;;17.57;10.33;;;;;;;;;;4362984;32;20181;-80
2020/12/06 01:09:52;;;;;;;14.97;9.97;;;;;;;;;;4362882;32;20226;-81
2020/12/06 01:12:18;;;;;;;17.53;10.47;;;;;;;;;;4362757;32;20174;-81
2020/12/06 01:14:43;;;;;;;14.00;9.53;;;;;;;;;;4363023;32;20155;-81
2020/12/06 01:17:08;;;;;;;16.43;10.57;;;;;;;;;;4362512;32;20166;-81
2020/12/06 01:19:33;;;;;;;16.70;11.07;;;;;;;;;;4362726;32;20155;-81
2020/12/06 01:22:04;;;;;;;18.90;10.87;;;;;;;;;;4363139;32;20311;-81
2020/12/06 01:24:41;;;;;;;16.30;11.27;;;;;;;;;;4363281;32;20448;-81
2020/12/06 01:27:09;;;;;;;14.60;9.97;;;;;;;;;;4362817;32;20150;-80
2020/12/06 01:29:35;;;;;;;19.20;11.37;;;;;;;;;;4362805;32;20197;-81
2020/12/06 01:32:00;;;;;;;18.77;11.63;;;;;;;;;;4362432;32;20586;-81
2020/12/06 01:34:25;;;;;;;18.23;11.07;;;;;;;;;;4362435;32;20669;-81
2020/12/06 01:36:51;;;;;;;20.03;12.13;;;;;;;;;;4362336;32;20517;-81
2020/12/06 01:39:19;;;;;;;21.27;13.47;;;;;;;;;;4376396;32;20143;-81
2020/12/06 01:41:44;;;;;;;20.37;12.23;;;;;;;;;;4362314;32;20155;-81
2020/12/06 01:44:10;;;;;;;20.07;13.07;;;;;;;;;;4362447;32;20185;-81
2020/12/06 01:46:38;;;;;;;22.67;13.13;;;;;;;;;;4363146;32;20182;-81
2020/12/06 01:49:04;;;;;;;20.27;12.17;;;;;;;;;;4376591;32;20131;-81
2020/12/06 01:51:29;;;;;;;23.77;13.73;;;;;;;;;;4362211;32;20222;-81
2020/12/06 01:53:55;;;;;;;22.30;13.33;;;;;;;;;;4362653;32;20169;-82
2020/12/06 01:56:23;;;;;;;25.27;13.30;;;;;;;;;;4375711;32;20165;-81
2020/12/06 01:58:56;;;;;;;21.80;13.47;;;;;;;;;;4361581;32;20217;-81
2020/12/06 02:01:24;;;;;;;24.00;13.73;;;;;;;;;;4375928;32;20489;-81
2020/12/06 02:03:55;;;;;;;21.63;14.03;;;;;;;;;;4362374;32;20232;-81
2020/12/06 02:06:21;;;;;;;23.63;14.37;;;;;;;;;;4376260;32;20150;-82
2020/12/06 02:08:47;;;;;;;26.43;14.97;;;;;;;;;;4362417;32;20245;-81
2020/12/06 02:11:33;;;;;;;27.53;14.67;;;;;;;;;;4375440;32;20192;-81
2020/12/06 02:13:59;;;;;;;28.77;14.73;;;;;;;;;;4361778;32;20227;-81
2020/12/06 02:16:24;;;;;;;23.37;14.53;;;;;;;;;;4361711;32;20213;-81
2020/12/06 02:18:55;;;;;;;23.17;13.37;;;;;;;;;;4361790;32;20189;-81
2020/12/06 02:21:20;;;;;;;24.37;14.20;;;;;;;;;;4362035;32;20143;-80
2020/12/06 02:23:46;;;;;;;23.03;14.73;;;;;;;;;;4362386;32;20178;-80
2020/12/06 02:26:11;;;;;;;25.50;14.30;;;;;;;;;;4361764;32;20225;-80
2020/12/06 02:28:36;;;;;;;22.90;14.30;;;;;;;;;;4361527;32;20167;-80
2020/12/06 02:31:05;;;;;;;30.90;17.10;;;;;;;;;;4375553;32;20127;-80
2020/12/06 02:33:30;;;;;;;24.30;15.00;;;;;;;;;;4375541;32;20565;-80
2020/12/06 02:35:58;;;;;;;26.73;16.13;;;;;;;;;;4361888;32;20256;-80
2020/12/06 02:38:23;;;;;;;24.37;15.03;;;;;;;;;;4361944;32;20478;-80
2020/12/06 02:43:37;;;;;;;26.20;14.23;;;;;;;;;;4370837;32;20154;-81
2020/12/06 02:46:02;;;;;;;24.80;14.97;;;;;;;;;;4361954;32;20499;-80
2020/12/06 02:48:28;;;;;;;25.87;15.27;;;;;;;;;;4361756;32;20151;-81
2020/12/06 02:50:56;;;;;;;23.60;14.70;;;;;;;;;;4361456;32;20151;-81
2020/12/06 02:53:21;;;;;;;23.63;14.40;;;;;;;;;;4361468;32;20155;-80
2020/12/06 02:55:46;;;;;;;24.63;13.47;;;;;;;;;;4361961;32;20612;-80
2020/12/06 02:58:17;;;;;;;27.50;14.80;;;;;;;;;;4361394;32;20162;-81
2020/12/06 03:00:43;;;;;;;26.43;15.40;;;;;;;;;;4362081;32;20549;-81
2020/12/06 03:03:21;;;;;;;25.20;14.67;;;;;;;;;;4361521;32;20162;-81
2020/12/06 03:05:49;;;;;;;29.37;15.57;;;;;;;;;;4361107;32;20189;-80
2020/12/06 03:08:15;;;;;;;28.97;15.63;;;;;;;;;;4361801;32;20185;-82
2020/12/06 03:10:40;;;;;;;27.90;16.07;;;;;;;;;;4361172;32;20159;-82
2020/12/06 03:13:05;;;;;;;27.57;15.30;;;;;;;;;;4361456;32;20212;-81
2020/12/06 03:15:33;;;;;;;25.73;15.80;;;;;;;;;;4375068;32;20193;-81
2020/12/06 03:17:58;;;;;;;26.07;15.57;;;;;;;;;;4360955;32;20588;-82
2020/12/06 03:20:26;;;;;;;29.90;16.90;;;;;;;;;;4361601;32;20184;-81
2020/12/06 03:22:52;;;;;;;29.47;15.43;;;;;;;;;;4361157;32;20154;-82
2020/12/06 03:25:17;;;;;;;25.20;14.97;;;;;;;;;;4361038;32;20153;-82
2020/12/06 03:27:42;;;;;;;28.10;15.33;;;;;;;;;;4360808;32;20222;-81
2020/12/06 03:30:08;;;;;;;30.70;16.13;;;;;;;;;;4361051;32;20159;-81
2020/12/06 03:32:36;;;;;;;29.80;16.60;;;;;;;;;;4361064;32;20525;-81
2020/12/06 03:35:01;;;;;;;28.67;15.17;;;;;;;;;;4361440;32;20154;-81
2020/12/06 03:37:27;;;;;;;31.73;17.17;;;;;;;;;;4361467;32;20201;-82
2020/12/06 03:39:52;;;;;;;28.87;16.30;;;;;;;;;;4360968;32;20204;-81
2020/12/06 03:42:17;;;;;;;28.33;16.10;;;;;;;;;;4362958;32;20186;-81
2020/12/06 03:44:43;;;;;;;33.47;17.63;;;;;;;;;;4364335;32;20176;-81
2020/12/06 03:47:08;;;;;;;32.57;18.07;;;;;;;;;;4364003;32;20159;-82
2020/12/06 03:49:34;;;;;;;32.10;17.57;;;;;;;;;;4364066;32;20169;-82
2020/12/06 03:51:59;;;;;;;37.50;18.17;;;;;;;;;;4377692;32;20186;-81
2020/12/06 03:54:24;;;;;;;35.60;18.03;;;;;;;;;;4363896;32;20166;-82
2020/12/06 03:56:59;;;;;;;26.80;15.77;;;;;;;;;;4363962;32;20155;-82
2020/12/06 03:59:24;;;;;;;31.83;17.50;;;;;;;;;;4364319;32;20193;-81
2020/12/06 04:01:49;;;;;;;32.87;18.17;;;;;;;;;;4363963;32;20530;-81
2020/12/06 04:04:15;;;;;;;30.93;16.23;;;;;;;;;;4377893;32;20455;-82
2020/12/06 04:06:40;;;;;;;30.87;17.77;;;;;;;;;;4363643;32;20200;-81
2020/12/06 04:09:05;;;;;;;30.03;17.13;;;;;;;;;;4363492;32;20631;-81
2020/12/06 04:11:33;;;;;;;37.67;19.30;;;;;;;;;;4363854;32;20490;-81
2020/12/06 04:13:59;;;;;;;34.80;19.37;;;;;;;;;;4363481;32;20255;-81
2020/12/06 04:16:26;;;;;;;38.27;20.13;;;;;;;;;;4363526;32;20563;-84
2020/12/06 04:18:54;;;;;;;35.27;19.33;;;;;;;;;;4377522;32;20245;-82
2020/12/06 04:21:28;;;;;;;41.00;20.40;;;;;;;;;;4363528;32;20142;-82
2020/12/06 04:23:56;;;;;;;31.57;17.60;;;;;;;;;;4363430;32;20145;-82
2020/12/06 04:26:22;;;;;;;37.17;18.03;;;;;;;;;;4363927;32;20185;-83
2020/12/06 04:29:08;;;;;;;32.73;18.00;;;;;;;;;;4363712;32;20603;-82
2020/12/06 04:31:36;;;;;;;30.67;17.63;;;;;;;;;;4363374;32;20584;-82
2020/12/06 04:34:12;;;;;;;32.83;17.97;;;;;;;;;;4363351;32;20170;-82
2020/12/06 04:36:37;;;;;;;36.07;20.50;;;;;;;;;;4364117;32;20162;-82
2020/12/06 04:39:02;;;;;;;34.37;18.63;;;;;;;;;;4363293;32;20622;-82
2020/12/06 04:41:28;;;;;;;40.43;22.13;;;;;;;;;;4363627;32;20169;-82
2020/12/06 04:43:56;;;;;;;40.83;21.03;;;;;;;;;;4363394;32;20188;-82
2020/12/06 04:46:22;;;;;;;40.87;21.37;;;;;;;;;;4363358;32;20216;-82
2020/12/06 04:49:26;;;;;;;41.53;22.00;;;;;;;;;;4363043;32;20163;-82
2020/12/06 04:51:54;;;;;;;38.83;20.47;;;;;;;;;;4364063;32;20193;-81
2020/12/06 04:54:23;;;;;;;39.33;21.07;;;;;;;;;;4377518;32;20131;-82
2020/12/06 04:56:50;;;;;;;40.43;20.43;;;;;;;;;;4363939;32;20548;-83
2020/12/06 04:59:16;;;;;;;39.77;21.80;;;;;;;;;;4363371;32;20182;-82
2020/12/06 05:01:42;;;;;;;39.13;21.53;;;;;;;;;;4370612;32;20143;-82
2020/12/06 05:04:14;;;;;;;42.70;22.80;;;;;;;;;;4362857;32;20213;-82
2020/12/06 05:06:43;;;;;;;39.07;21.80;;;;;;;;;;4362907;32;20155;-82
2020/12/06 05:09:09;;;;;;;41.83;23.47;;;;;;;;;;4362877;32;20627;-82
2020/12/06 05:11:35;;;;;;;38.60;21.73;;;;;;;;;;4363019;32;20541;-83
2020/12/06 05:14:00;;;;;;;45.00;22.77;;;;;;;;;;4376684;32;20131;-83
2020/12/06 05:16:26;;;;;;;39.33;20.50;;;;;;;;;;4363297;32;20221;-82
2020/12/06 05:18:54;;;;;;;41.27;22.20;;;;;;;;;;4363208;32;20174;-82
2020/12/06 05:21:32;;;;;;;42.73;22.30;;;;;;;;;;4363248;32;20155;-82
2020/12/06 05:23:57;;;;;;;40.87;22.47;;;;;;;;;;4363383;32;20162;-82
2020/12/06 05:26:22;;;;;;;41.13;22.30;;;;;;;;;;4362596;32;20557;-82
2020/12/06 05:28:47;;;;;;;37.93;21.30;;;;;;;;;;4362409;32;20497;-82
2020/12/06 05:31:13;;;;;;;41.57;22.30;;;;;;;;;;4362486;32;20234;-82
2020/12/06 05:33:41;;;;;;;38.60;22.50;;;;;;;;;;4362452;32;20233;-83
2020/12/06 05:36:06;;;;;;;45.73;23.83;;;;;;;;;;4362661;32;20213;-82
2020/12/06 05:38:32;;;;;;;40.50;22.60;;;;;;;;;;4363088;32;20158;-82
2020/12/06 05:41:00;;;;;;;38.27;22.00;;;;;;;;;;4362419;32;20182;-83
2020/12/06 05:43:27;;;;;;;37.60;21.30;;;;;;;;;;4362560;32;20154;-82
2020/12/06 05:46:13;;;;;;;40.30;23.43;;;;;;;;;;4362411;32;20572;-82
2020/12/06 05:48:39;;;;;;;42.90;23.67;;;;;;;;;;4362461;32;20163;-82
2020/12/06 05:51:07;;;;;;;41.73;23.30;;;;;;;;;;4375778;32;20255;-82
2020/12/06 05:53:34;;;;;;;41.47;24.13;;;;;;;;;;4362265;32;20552;-82
2020/12/06 05:56:15;;;;;;;39.37;21.90;;;;;;;;;;4362581;32;20173;-83
2020/12/06 05:58:41;;;;;;;39.80;23.43;;;;;;;;;;4362476;32;20150;-83
2020/12/06 06:01:09;;;;;;;42.40;24.73;;;;;;;;;;4362092;32;20239;-83
2020/12/06 06:03:35;;;;;;;39.73;22.97;;;;;;;;;;4362113;32;20173;-82
2020/12/06 06:06:08;;;;;;;44.37;24.10;;;;;;;;;;4362142;32;20155;-83
2020/12/06 06:08:38;;;;;;;40.43;23.93;;;;;;;;;;4362455;32;20181;-82
2020/12/06 06:11:27;;;;;;;41.07;22.93;;;;;;;;;;4376729;32;20541;-83
2020/12/06 06:13:55;;;;;;;42.53;22.10;;;;;;;;;;4364444;32;20177;-83
2020/12/06 06:16:24;;;;;;;42.33;22.40;;;;;;;;;;4365156;32;20147;-84
2020/12/06 06:18:52;;;;;;;43.77;23.30;;;;;;;;;;4378677;32;20161;-83
2020/12/06 06:21:20;;;;;;;39.87;22.83;;;;;;;;;;4379147;32;20127;-81
2020/12/06 06:23:48;;;;;;;42.27;23.47;;;;;;;;;;4363619;32;20250;-84
2020/12/06 06:26:17;;;;;;;38.80;21.77;;;;;;;;;;4361901;32;20155;-83
2020/12/06 06:28:43;;;;;;;38.53;22.27;;;;;;;;;;4375220;32;20170;-81
2020/12/06 06:31:09;;;;;;;36.30;21.80;;;;;;;;;;4361692;32;20150;-82
2020/12/06 06:33:36;;;;;;;35.83;20.90;;;;;;;;;;4361931;32;20185;-83
2020/12/06 06:36:04;;;;;;;38.33;21.03;;;;;;;;;;4361545;32;20233;-83
2020/12/06 06:38:39;;;;;;;38.00;21.43;;;;;;;;;;4361617;32;20155;-82
2020/12/06 06:41:05;;;;;;;34.10;19.87;;;;;;;;;;4362378;32;20146;-82
2020/12/06 06:43:33;;;;;;;34.83;21.67;;;;;;;;;;4361626;32;20216;-82
2020/12/06 06:46:05;;;;;;;36.17;19.77;;;;;;;;;;4375487;32;20609;-82
2020/12/06 06:48:33;;;;;;;35.27;20.47;;;;;;;;;;4361870;32;20151;-82
2020/12/06 06:50:58;;;;;;;35.70;19.97;;;;;;;;;;4361477;32;20197;-83
2020/12/06 06:53:27;;;;;;;41.60;22.43;;;;;;;;;;4362063;32;20628;-82
2020/12/06 06:55:54;;;;;;;37.17;21.63;;;;;;;;;;4361515;32;20155;-82
2020/12/06 06:58:27;;;;;;;34.73;20.60;;;;;;;;;;4361978;32;20171;-83
2020/12/06 07:01:12;;;;;;;37.57;21.77;;;;;;;;;;4361924;32;20155;-82
2020/12/06 07:03:45;;;;;;;37.83;21.53;;;;;;;;;;4361635;32;20166;-82
2020/12/06 07:06:10;;;;;;;37.50;20.67;;;;;;;;;;4361656;32;20177;-83
2020/12/06 07:08:36;;;;;;;40.07;22.03;;;;;;;;;;4361218;32;20213;-81
2020/12/06 07:11:05;;;;;;;38.07;21.70;;;;;;;;;;4361396;32;20183;-82
2020/12/06 07:13:34;;;;;;;37.10;21.77;;;;;;;;;;4362167;32;20166;-83
2020/12/06 07:16:07;;;;;;;37.50;22.23;;;;;;;;;;4374413;32;20217;-81
2020/12/06 07:18:36;;;;;;;36.53;21.20;;;;;;;;;;4361577;32;20181;-83
2020/12/06 07:21:03;;;;;;;36.27;21.47;;;;;;;;;;4362036;32;20209;-82
2020/12/06 07:23:29;;;;;;;33.23;19.80;;;;;;;;;;4361530;32;20147;-83
2020/12/06 07:25:54;;;;;;;37.90;21.43;;;;;;;;;;4361712;32;20221;-83
2020/12/06 07:28:22;;;;;;;37.80;21.20;;;;;;;;;;4361166;32;20190;-83
2020/12/06 07:30:52;;;;;;;37.20;21.33;;;;;;;;;;4361342;32;20159;-83
2020/12/06 07:33:18;;;;;;;34.20;20.33;;;;;;;;;;4361556;32;20639;-83
2020/12/06 07:35:43;;;;;;;36.30;20.43;;;;;;;;;;4361641;32;20151;-82
2020/12/06 07:38:09;;;;;;;32.40;19.13;;;;;;;;;;4361279;32;20594;-83
2020/12/06 07:40:34;;;;;;;36.67;20.87;;;;;;;;;;4361680;32;20196;-82
2020/12/06 07:43:12;;;;;;;33.07;19.97;;;;;;;;;;4361309;32;20659;-81
2020/12/06 07:45:37;;;;;;;34.80;20.67;;;;;;;;;;4361134;32;20174;-82
2020/12/06 07:48:10;;;;;;;37.03;20.70;;;;;;;;;;4361022;32;20616;-83
2020/12/06 07:50:46;;;;;;;36.43;21.43;;;;;;;;;;4361075;32;20162;-84
2020/12/06 07:53:12;;;;;;;34.90;20.47;;;;;;;;;;4361290;32;20514;-82
2020/12/06 07:55:37;;;;;;;34.00;21.00;;;;;;;;;;4361241;32;20162;-83
2020/12/06 07:58:06;;;;;;;34.37;19.10;;;;;;;;;;4360978;32;20154;-82
2020/12/06 08:00:43;;;;;;;36.83;21.07;;;;;;;;;;4361601;32;20584;-83
2020/12/06 08:03:12;;;;;;;38.27;21.23;;;;;;;;;;4360931;32;20224;-83
2020/12/06 08:05:44;;;;;;;35.40;20.93;;;;;;;;;;4360919;32;20241;-82
2020/12/06 08:08:13;;;;;;;36.27;20.90;;;;;;;;;;4360782;32;20197;-82
2020/12/06 08:10:40;;;;;;;30.97;19.67;;;;;;;;;;4374353;32;20624;-81
2020/12/06 08:13:09;;;;;;;36.37;21.33;;;;;;;;;;4360636;32;20166;-82
2020/12/06 08:15:42;;;;;;;36.60;21.63;;;;;;;;;;4360840;32;20221;-82
2020/12/06 08:18:17;;;;;;;34.83;20.77;;;;;;;;;;4360676;32;20673;-82
2020/12/06 08:20:52;;;;;;;33.50;19.77;;;;;;;;;;4360716;32;20583;-81
2020/12/06 08:23:18;;;;;;;37.23;22.03;;;;;;;;;;4361562;32;20229;-84
2020/12/06 08:25:47;;;;;;;34.97;20.47;;;;;;;;;;4361069;32;20162;-84
2020/12/06 08:28:18;;;;;;;33.90;20.63;;;;;;;;;;4362038;32;20182;-82
2020/12/06 08:30:44;;;;;;;37.47;22.60;;;;;;;;;;4363210;32;20312;-84
2020/12/06 08:33:09;;;;;;;36.70;21.33;;;;;;;;;;4363275;32;20181;-80
2020/12/06 08:35:46;;;;;;;33.47;20.43;;;;;;;;;;4363234;32;20472;-82
2020/12/06 08:38:21;;;;;;;36.37;21.53;;;;;;;;;;4363240;32;20174;-81
2020/12/06 08:41:11;;;;;;;34.13;21.13;;;;;;;;;;4363156;32;20236;-82
2020/12/06 08:43:45;;;;;;;36.40;22.67;;;;;;;;;;4377076;32;20591;-81
2020/12/06 08:46:15;;;;;;;35.70;20.90;;;;;;;;;;4363725;32;20641;-81
2020/12/06 08:48:44;;;;;;;39.57;21.80;;;;;;;;;;4363442;32;20150;-82
2020/12/06 08:51:28;;;;;;;32.83;20.70;;;;;;;;;;4363113;32;20182;-81
2020/12/06 08:53:54;;;;;;;30.67;19.73;;;;;;;;;;4363474;32;20564;-82
2020/12/06 08:56:42;;;;;;;32.73;20.03;;;;;;;;;;4362791;32;20186;-81
2020/12/06 08:59:08;;;;;;;28.80;19.53;;;;;;;;;;4363585;32;20208;-82
2020/12/06 09:01:48;;;;;;;36.53;20.27;;;;;;;;;;4362801;32;20193;-82
2020/12/06 09:04:14;;;;;;;31.63;19.33;;;;;;;;;;4376951;32;20547;-81
2020/12/06 09:06:42;;;;;;;33.03;19.47;;;;;;;;;;4362862;32;20178;-82
2020/12/06 09:09:08;;;;;;;34.43;20.37;;;;;;;;;;4362616;32;20225;-82
2020/12/06 09:11:33;;;;;;;31.20;18.87;;;;;;;;;;4363525;32;20551;-81
2020/12/06 09:13:58;;;;;;;28.27;18.10;;;;;;;;;;4362764;32;20618;-82
2020/12/06 09:16:24;;;;;;;32.73;19.70;;;;;;;;;;4362808;32;20177;-82
2020/12/06 09:18:49;;;;;;;30.27;18.27;;;;;;;;;;4362652;32;20226;-82
2020/12/06 09:21:15;;;;;;;30.73;18.17;;;;;;;;;;4363034;32;20189;-81
2020/12/06 09:23:40;;;;;;;32.87;18.90;;;;;;;;;;4376418;32;20450;-82
2020/12/06 09:26:05;;;;;;;27.57;17.93;;;;;;;;;;4362588;32;20489;-80
2020/12/06 09:28:31;;;;;;;28.17;17.70;;;;;;;;;;4362246;32;20616;-82
2020/12/06 09:31:09;;;;;;;;;;;;;;;;;;;;;
2020/12/06 09:33:35;;;;;;;33.03;19.47;;;;;;;;;;4376800;32;20138;-81
2020/12/06 09:36:04;;;;;;;29.33;18.40;;;;;;;;;;4362433;32;20189;-83
2020/12/06 09:38:30;;;;;;;30.63;19.13;;;;;;;;;;4361771;32;20642;-81
2020/12/06 09:40:56;;;;;;;29.30;18.57;;;;;;;;;;4362239;32;20154;-82
2020/12/06 09:43:21;;;;;;;31.03;18.93;;;;;;;;;;4362278;32;20507;-81
2020/12/06 09:45:55;;;;;;;34.93;19.13;;;;;;;;;;4362825;32;20155;-81
2020/12/06 09:48:26;;;;;;;29.73;18.20;;;;;;;;;;4376052;32;20135;-80
2020/12/06 09:50:54;;;;;;;31.30;19.47;;;;;;;;;;4362792;32;20163;-81
2020/12/06 09:53:19;;;;;;;30.97;18.43;;;;;;;;;;4362518;32;20170;-81
2020/12/06 09:55:53;;;;;;;30.43;19.37;;;;;;;;;;4362119;32;20154;-80
2020/12/06 09:58:24;;;;;;;30.07;18.93;;;;;;;;;;4361956;32;20154;-81
2020/12/06 10:00:52;;;;;;;28.57;18.00;;;;;;;;;;4362691;32;20143;-81
2020/12/06 10:03:18;;;;;;;31.40;18.27;;;;;;;;;;4361906;32;20212;-81
2020/12/06 10:05:43;;;;;;;30.97;19.20;;;;;;;;;;4362256;32;20577;-81
2020/12/06 10:08:15;;;;;;;30.80;19.10;;;;;;;;;;4375804;32;20161;-82
2020/12/06 10:10:43;;;;;;;30.93;19.50;;;;;;;;;;4362204;32;20200;-82
2020/12/06 10:13:14;;;;;;;31.43;19.60;;;;;;;;;;4362246;32;20291;-81
2020/12/06 10:15:39;;;;;;;29.67;18.00;;;;;;;;;;4362205;32;20155;-81
2020/12/06 10:18:15;;;;;;;30.90;19.10;;;;;;;;;;4361636;32;20253;-81
2020/12/06 10:20:41;;;;;;;29.57;18.77;;;;;;;;;;4375690;32;20165;-80
2020/12/06 10:23:09;;;;;;;29.33;19.23;;;;;;;;;;4361738;32;20630;-81
2020/12/06 10:25:35;;;;;;;28.93;18.80;;;;;;;;;;4362095;32;20159;-81
2020/12/06 10:28:00;;;;;;;30.30;18.37;;;;;;;;;;4361549;32;20222;-82
2020/12/06 10:30:25;;;;;;;30.87;18.73;;;;;;;;;;4361912;32;20223;-82
2020/12/06 10:32:59;;;;;;;34.87;20.77;;;;;;;;;;4362130;32;20189;-81
2020/12/06 10:35:24;;;;;;;31.33;19.93;;;;;;;;;;4363173;32;20209;-80
2020/12/06 10:37:52;;;;;;;31.43;19.37;;;;;;;;;;4361898;32;20154;-80
2020/12/06 10:40:17;;;;;;;28.63;17.30;;;;;;;;;;4362402;32;20151;-80
2020/12/06 10:42:45;;;;;;;35.07;19.83;;;;;;;;;;4362633;32;20170;-81
2020/12/06 10:45:13;;;;;;;29.83;17.60;;;;;;;;;;4363004;32;20213;-81
2020/12/06 10:47:39;;;;;;;28.43;18.20;;;;;;;;;;4362479;32;20151;-81
2020/12/06 10:50:04;;;;;;;29.43;18.47;;;;;;;;;;4374831;32;20177;-81
2020/12/06 10:52:32;;;;;;;33.10;18.37;;;;;;;;;;4361110;32;20181;-81
2020/12/06 10:54:58;;;;;;;28.33;17.77;;;;;;;;;;4361328;32;20177;-81
2020/12/06 10:57:23;;;;;;;32.07;19.07;;;;;;;;;;4361940;32;20158;-81
2020/12/06 10:59:49;;;;;;;29.07;18.93;;;;;;;;;;4361901;32;20524;-81
2020/12/06 11:02:14;;;;;;;29.07;18.30;;;;;;;;;;4361770;32;20154;-81
2020/12/06 11:04:39;;;;;;;28.23;18.50;;;;;;;;;;4361418;32;20159;-82
2020/12/06 11:07:04;;;;;;;28.57;17.70;;;;;;;;;;4361778;32;20151;-82
2020/12/06 11:09:49;;;;;;;28.27;18.70;;;;;;;;;;4374923;32;20169;-80
2020/12/06 11:12:23;;;;;;;27.70;17.43;;;;;;;;;;4353144;32;20167;-81
2020/12/06 11:14:49;;;;;;;31.80;18.43;;;;;;;;;;4360483;32;20154;-80
2020/12/06 11:17:17;;;;;;;34.73;19.73;;;;;;;;;;4361222;32;20181;-79
2020/12/06 11:19:42;;;;;;;32.70;19.07;;;;;;;;;;4374856;32;20174;-81
2020/12/06 11:22:13;;;;;;;33.83;20.03;;;;;;;;;;4362101;32;20580;-81
2020/12/06 11:24:41;;;;;;;30.73;18.83;;;;;;;;;;4361764;32;20159;-81
2020/12/06 11:27:09;;;;;;;29.70;18.13;;;;;;;;;;4374771;32;20241;-81
2020/12/06 11:29:43;;;;;;;30.77;19.10;;;;;;;;;;4361693;32;20166;-80
2020/12/06 11:32:08;;;;;;;30.43;19.73;;;;;;;;;;4363695;32;20176;-81
2020/12/06 11:34:34;;;;;;;29.07;17.97;;;;;;;;;;4362058;32;20178;-79
2020/12/06 11:37:24;;;;;;;33.73;19.87;;;;;;;;;;4359289;32;20522;-80
2020/12/06 11:40:11;;;;;;;;;;;;;;;;;;;;;
2020/12/06 11:42:37;;;;;;;29.00;18.37;;;;;;;;;;4374910;32;20209;-80
2020/12/06 11:45:05;;;;;;;30.50;19.37;;;;;;;;;;4371599;32;20158;-80
2020/12/06 11:47:33;;;;;;;34.57;20.80;;;;;;;;;;4360801;32;20189;-82
2020/12/06 11:50:02;;;;;;;30.40;19.80;;;;;;;;;;4360804;32;20218;-79
2020/12/06 11:52:28;;;;;;;29.53;18.57;;;;;;;;;;4360909;32;20185;-79
2020/12/06 11:55:11;;;;;;;37.40;21.63;;;;;;;;;;4360746;32;20232;-80
2020/12/06 11:57:37;;;;;;;32.00;19.77;;;;;;;;;;4360291;32;20190;-79
2020/12/06 12:00:06;;;;;;;32.30;19.10;;;;;;;;;;4353117;32;20184;-80
2020/12/06 12:02:41;;;;;;;31.93;19.23;;;;;;;;;;4367535;32;20173;-81
2020/12/06 12:05:07;;;;;;;32.23;18.67;;;;;;;;;;4376196;32;20633;-80
2020/12/06 12:07:32;;;;;;;33.87;21.27;;;;;;;;;;4376905;32;20135;-81
2020/12/06 12:10:00;;;;;;;32.73;20.27;;;;;;;;;;4363202;32;20205;-83
2020/12/06 12:12:27;;;;;;;31.90;19.03;;;;;;;;;;4377207;32;20162;-82
2020/12/06 12:14:52;;;;;;;32.93;19.50;;;;;;;;;;4376838;32;20484;-81
2020/12/06 12:17:27;;;;;;;32.57;19.17;;;;;;;;;;4364047;32;20151;-81
2020/12/06 12:19:54;;;;;;;33.33;19.73;;;;;;;;;;4363394;32;20178;-81
2020/12/06 12:22:24;;;;;;;35.73;21.73;;;;;;;;;;4363131;32;20209;-81
2020/12/06 12:24:49;;;;;;;36.23;22.93;;;;;;;;;;4361963;32;20174;-80
2020/12/06 12:27:14;;;;;;;33.60;20.47;;;;;;;;;;4376526;32;20191;-81
2020/12/06 12:29:39;;;;;;;34.93;20.63;;;;;;;;;;4372878;32;20642;-80
2020/12/06 12:32:05;;;;;;;38.13;22.73;;;;;;;;;;4363738;32;20651;-80
2020/12/06 12:34:30;;;;;;;33.77;20.37;;;;;;;;;;4369081;32;20479;-80
2020/12/06 12:36:55;;;;;;;34.60;21.00;;;;;;;;;;4369722;32;20187;-82
2020/12/06 12:39:23;;;;;;;35.77;22.20;;;;;;;;;;4377366;32;20181;-82
2020/12/06 12:41:56;;;;;;;35.37;20.43;;;;;;;;;;4362755;32;20610;-80
2020/12/06 12:44:23;;;;;;;33.23;20.30;;;;;;;;;;4362852;32;20174;-80
2020/12/06 12:46:57;;;;;;;33.50;19.43;;;;;;;;;;4362779;32;20213;-81
2020/12/06 12:49:42;;;;;;;32.97;19.97;;;;;;;;;;4362616;32;20158;-83
2020/12/06 12:52:09;;;;;;;31.43;19.77;;;;;;;;;;4377282;32;20165;-82
2020/12/06 12:54:36;;;;;;;31.47;18.90;;;;;;;;;;4362831;32;20181;-82
2020/12/06 12:57:04;;;;;;;31.43;19.30;;;;;;;;;;4375911;32;20134;-81
2020/12/06 12:59:29;;;;;;;31.70;19.43;;;;;;;;;;4368469;32;20159;-82
2020/12/06 13:01:57;;;;;;;34.87;20.67;;;;;;;;;;4373280;32;20162;-82
2020/12/06 13:04:22;;;;;;;36.53;20.27;;;;;;;;;;4362270;32;20155;-82
2020/12/06 13:06:55;;;;;;;33.47;20.43;;;;;;;;;;4361721;32;20171;-82
2020/12/06 13:09:44;;;;;;;34.03;21.33;;;;;;;;;;4362186;32;20166;-82
2020/12/06 13:12:16;;;;;;;32.87;19.63;;;;;;;;;;4362732;32;20151;-84
2020/12/06 13:14:49;;;;;;;32.43;19.03;;;;;;;;;;4361681;32;20155;-83
2020/12/06 13:17:14;;;;;;;37.87;21.60;;;;;;;;;;4362524;32;20224;-81
2020/12/06 13:19:40;;;;;;;34.13;20.13;;;;;;;;;;4362147;32;20496;-79
2020/12/06 13:22:06;;;;;;;37.37;20.57;;;;;;;;;;4362480;32;20154;-80
2020/12/06 13:24:31;;;;;;;35.20;21.47;;;;;;;;;;4362147;32;20229;-80
2020/12/06 13:27:00;;;;;;;34.93;19.67;;;;;;;;;;4362164;32;20155;-80
2020/12/06 13:29:25;;;;;;;38.03;21.47;;;;;;;;;;4361770;32;20171;-80
2020/12/06 13:31:51;;;;;;;34.60;20.50;;;;;;;;;;4361902;32;20245;-79
2020/12/06 13:34:16;;;;;;;33.57;19.77;;;;;;;;;;4361762;32;20198;-80
2020/12/06 13:36:42;;;;;;;37.33;21.07;;;;;;;;;;4362443;32;20245;-79
2020/12/06 13:39:07;;;;;;;41.23;23.17;;;;;;;;;;4362050;32;20162;-80
2020/12/06 13:41:32;;;;;;;37.73;21.20;;;;;;;;;;4362027;32;20155;-80
2020/12/06 13:43:58;;;;;;;37.50;22.53;;;;;;;;;;4361902;32;20150;-80
2020/12/06 13:46:23;;;;;;;38.83;22.70;;;;;;;;;;4361542;32;20220;-79
2020/12/06 13:48:49;;;;;;;37.40;21.43;;;;;;;;;;4361971;32;20185;-81
2020/12/06 13:51:26;;;;;;;40.10;23.77;;;;;;;;;;4375626;32;20225;-81
2020/12/06 13:53:54;;;;;;;36.87;21.10;;;;;;;;;;4361983;32;20147;-80
2020/12/06 13:56:19;;;;;;;39.10;22.83;;;;;;;;;;4359639;32;20162;-80
2020/12/06 13:58:45;;;;;;;39.13;22.13;;;;;;;;;;4360717;32;20196;-80
2020/12/06 14:01:10;;;;;;;36.67;21.93;;;;;;;;;;4362117;32;20874;-81
2020/12/06 14:03:39;;;;;;;37.10;21.53;;;;;;;;;;4375343;32;20147;-80
2020/12/06 14:06:23;;;;;;;39.30;22.63;;;;;;;;;;4361498;32;20175;-81
2020/12/06 14:08:49;;;;;;;38.97;21.63;;;;;;;;;;4361773;32;20216;-81
2020/12/06 14:11:29;;;;;;;;;;;;;;;;;;;;;
2020/12/06 14:13:58;;;;;;;36.47;20.33;;;;;;;;;;4375509;32;20177;-81
2020/12/06 14:16:29;;;;;;;39.47;22.93;;;;;;;;;;4361474;32;20155;-82
2020/12/06 14:19:02;;;;;;;35.47;21.63;;;;;;;;;;4362011;32;20150;-81
2020/12/06 14:21:28;;;;;;;37.27;22.67;;;;;;;;;;4360939;32;20193;-79
2020/12/06 14:23:56;;;;;;;39.30;22.50;;;;;;;;;;4361533;32;20155;-80
2020/12/06 14:26:21;;;;;;;39.67;22.30;;;;;;;;;;4360388;32;20298;-80
2020/12/06 14:28:50;;;;;;;37.70;22.37;;;;;;;;;;4361330;32;20511;-81
2020/12/06 14:31:18;;;;;;;34.67;21.73;;;;;;;;;;4374792;32;20613;-81